Time;durP1;ratioP1;P1;durP2;ratioP2;P2;SDS_P1;SDS_P2;PMS_P1;PMS_P2;Temp;Humidity;BMP_temperature;BMP_pressure;BME280_temperature;BME280_humidity;BME280_pressure;Samples;Min_cycle;Max_cycle;Signal;HPM_P1;HPM_P2
2022/07/05 00:00:53;;;;;;;8.32;5.93;;;22.90;99.90;;;;;;4182735;28;20052;-65
2022/07/05 00:02:54;;;;;;;6.07;5.47;;;22.90;99.90;;;;;;4176536;28;20473;-68
2022/07/05 00:04:56;;;;;;;7.93;5.60;;;22.90;99.90;;;;;;4176599;28;20029;-68
2022/07/05 00:09:16;;;;;;;7.20;6.45;;;22.90;99.90;;;;;;4177211;28;20041;-64
2022/07/05 00:11:17;;;;;;;8.77;5.38;;;22.90;99.90;;;;;;4189622;28;20040;-65
2022/07/05 00:13:19;;;;;;;10.35;6.32;;;22.90;99.90;;;;;;4192646;28;20037;-67
2022/07/05 00:15:20;;;;;;;8.60;5.75;;;22.90;99.90;;;;;;4193032;28;20016;-67
2022/07/05 00:17:21;;;;;;;9.35;6.13;;;22.90;99.90;;;;;;4192950;28;20085;-65
2022/07/05 00:19:22;;;;;;;8.00;6.15;;;22.90;99.90;;;;;;4181604;28;20017;-69
2022/07/05 00:21:23;;;;;;;10.07;6.45;;;22.90;99.90;;;;;;4189731;28;20411;-66
2022/07/05 00:23:24;;;;;;;11.65;6.30;;;22.80;99.90;;;;;;4191241;28;20048;-66
2022/07/05 00:25:26;;;;;;;15.75;7.32;;;22.70;99.90;;;;;;4192414;28;20032;-66
2022/07/05 00:27:27;;;;;;;13.63;7.10;;;22.60;99.90;;;;;;4192965;28;20021;-67
2022/07/05 00:29:28;;;;;;;10.27;6.38;;;22.50;99.90;;;;;;4192616;28;20503;-68
2022/07/05 00:31:29;;;;;;;16.35;7.57;;;22.40;99.90;;;;;;4192926;28;20028;-68
2022/07/05 00:33:31;;;;;;;10.13;7.13;;;22.20;99.90;;;;;;4180920;28;20041;-65
2022/07/05 00:35:32;;;;;;;11.90;7.40;;;22.10;99.90;;;;;;4179644;28;20033;-68
2022/07/05 00:37:33;;;;;;;10.27;7.57;;;21.80;99.90;;;;;;4179675;28;20427;-65
2022/07/05 00:39:34;;;;;;;13.10;8.18;;;21.70;99.90;;;;;;4179693;28;20431;-66
2022/07/05 00:41:36;;;;;;;13.95;8.32;;;21.50;99.90;;;;;;4189533;28;20054;-68
2022/07/05 00:43:37;;;;;;;13.15;8.48;;;21.50;99.90;;;;;;4196086;28;20032;-67
2022/07/05 00:45:38;;;;;;;11.43;8.70;;;21.40;99.90;;;;;;4181545;28;20045;-67
2022/07/05 00:47:39;;;;;;;10.68;7.43;;;21.30;99.90;;;;;;4179398;28;20103;-68
2022/07/05 00:49:42;;;;;;;13.23;8.23;;;21.20;99.90;;;;;;4183304;28;20036;-65
2022/07/05 00:51:43;;;;;;;19.08;8.75;;;21.10;99.90;;;;;;4196255;28;20058;-66
2022/07/05 00:53:44;;;;;;;11.73;8.20;;;21.10;99.90;;;;;;4195512;28;20032;-67
2022/07/05 00:55:46;;;;;;;15.60;8.65;;;21.10;99.90;;;;;;4193765;28;20040;-65
2022/07/05 00:57:49;;;;;;;12.35;7.80;;;21.00;99.90;;;;;;4195756;28;20078;-66
2022/07/05 00:59:51;;;;;;;12.75;7.72;;;21.10;99.90;;;;;;4195781;28;20431;-65
2022/07/05 01:01:52;;;;;;;9.20;7.60;;;21.20;99.90;;;;;;4195713;28;20025;-67
2022/07/05 01:03:53;;;;;;;12.35;8.45;;;21.30;99.90;;;;;;4195502;28;20492;-67
2022/07/05 01:05:55;;;;;;;10.30;7.90;;;21.30;99.90;;;;;;4184982;28;20083;-68
2022/07/05 01:08:00;;;;;;;12.38;9.10;;;21.30;99.90;;;;;;4179097;28;20036;-66
2022/07/05 01:10:01;;;;;;;18.65;8.88;;;21.20;99.90;;;;;;4178985;28;20025;-65
2022/07/05 01:12:03;;;;;;;9.60;8.27;;;21.20;99.90;;;;;;4179175;28;20465;-67
2022/07/05 01:14:05;;;;;;;16.95;7.75;;;21.10;99.90;;;;;;4178781;28;20032;-64
2022/07/05 01:16:07;;;;;;;11.48;8.10;;;21.10;99.90;;;;;;4178953;28;20082;-65
2022/07/05 01:18:09;;;;;;;12.90;8.13;;;21.20;99.90;;;;;;4189514;28;20040;-66
2022/07/05 01:20:11;;;;;;;17.13;8.93;;;21.20;99.90;;;;;;4194789;28;20044;-65
2022/07/05 01:22:17;;;;;;;18.15;8.00;;;21.20;99.90;;;;;;4195535;28;20044;-67
2022/07/05 01:24:20;;;;;;;14.60;8.15;;;21.20;99.90;;;;;;4194971;28;20036;-65
2022/07/05 01:26:21;;;;;;;10.85;8.68;;;21.20;99.90;;;;;;4194899;28;20041;-66
2022/07/05 01:28:23;;;;;;;17.05;9.27;;;21.20;99.90;;;;;;4195349;28;20545;-65
2022/07/05 01:30:24;;;;;;;17.67;8.60;;;21.20;99.90;;;;;;4183823;28;20106;-65
2022/07/05 01:32:25;;;;;;;10.45;8.88;;;21.10;99.90;;;;;;4176675;28;20053;-63
2022/07/05 01:34:26;;;;;;;16.45;8.70;;;21.00;99.90;;;;;;4178911;28;20025;-65
2022/07/05 01:36:28;;;;;;;14.50;8.65;;;21.00;99.90;;;;;;4178746;28;20423;-66
2022/07/05 01:38:29;;;;;;;11.32;8.05;;;20.90;99.90;;;;;;4178868;28;20021;-64
2022/07/05 01:40:31;;;;;;;16.15;8.73;;;20.90;99.90;;;;;;4189474;28;20086;-66
2022/07/05 01:42:32;;;;;;;16.83;8.30;;;20.90;99.90;;;;;;4194520;28;20069;-67
2022/07/05 01:44:33;;;;;;;12.77;8.02;;;20.90;99.90;;;;;;4194839;28;20496;-68
2022/07/05 01:46:38;;;;;;;13.45;7.63;;;21.00;99.90;;;;;;4195171;28;20464;-65
2022/07/05 01:48:40;;;;;;;18.55;9.13;;;21.00;99.90;;;;;;4194963;28;20098;-66
2022/07/05 01:50:48;;;;;;;11.02;8.02;;;21.10;99.90;;;;;;4183068;28;20508;-64
2022/07/05 01:52:51;;;;;;;14.95;8.38;;;21.10;99.90;;;;;;4178742;28;20045;-64
2022/07/05 01:54:53;;;;;;;11.98;8.57;;;21.10;99.90;;;;;;4178386;28;20028;-67
2022/07/05 01:56:54;;;;;;;12.10;8.35;;;21.00;99.90;;;;;;4178117;28;20048;-68
2022/07/05 01:58:56;;;;;;;15.63;8.75;;;20.90;99.90;;;;;;4178149;28;20448;-68
2022/07/05 02:00:58;;;;;;;15.63;8.52;;;20.80;99.90;;;;;;4178375;28;20037;-67
2022/07/05 02:03:00;;;;;;;11.25;8.63;;;20.90;99.90;;;;;;4192297;28;20053;-67
2022/07/05 02:05:01;;;;;;;14.02;8.35;;;20.90;99.90;;;;;;4194325;28;20044;-67
2022/07/05 02:07:06;;;;;;;12.45;8.52;;;20.90;99.90;;;;;;4194615;28;20480;-64
2022/07/05 02:09:08;;;;;;;17.05;9.02;;;20.90;99.90;;;;;;4194661;28;20036;-67
2022/07/05 02:11:09;;;;;;;11.90;9.00;;;20.80;99.90;;;;;;4194498;28;20044;-67
2022/07/05 02:13:10;;;;;;;12.40;9.07;;;20.90;99.90;;;;;;4179370;28;20045;-69
2022/07/05 02:15:11;;;;;;;13.13;8.75;;;20.90;99.90;;;;;;4177585;28;20170;-67
2022/07/05 02:17:13;;;;;;;17.13;10.32;;;21.00;99.90;;;;;;4178145;28;20851;-67
2022/07/05 02:19:14;;;;;;;17.08;9.68;;;21.00;99.90;;;;;;4177987;28;20079;-67
2022/07/05 02:21:15;;;;;;;16.35;9.23;;;21.00;99.90;;;;;;4178037;28;20037;-69
2022/07/05 02:23:16;;;;;;;13.20;8.55;;;21.00;99.90;;;;;;4177982;28;20045;-68
2022/07/05 02:25:17;;;;;;;16.95;9.07;;;21.00;99.90;;;;;;4193223;28;20044;-68
2022/07/05 02:27:18;;;;;;;15.32;8.73;;;21.00;99.90;;;;;;4191410;28;20967;-66
2022/07/05 02:29:20;;;;;;;15.52;9.35;;;21.00;99.90;;;;;;4177379;28;20037;-65
2022/07/05 02:31:21;;;;;;;14.60;8.40;;;20.90;99.90;;;;;;4177749;28;20064;-65
2022/07/05 02:33:22;;;;;;;15.90;8.70;;;20.90;99.90;;;;;;4177608;28;20477;-67
2022/07/05 02:35:23;;;;;;;14.95;8.85;;;20.80;99.90;;;;;;4177484;28;20037;-68
2022/07/05 02:37:25;;;;;;;15.40;9.90;;;20.80;99.90;;;;;;4178800;28;20033;-68
2022/07/05 02:39:27;;;;;;;15.68;9.73;;;20.70;99.90;;;;;;4177702;28;20041;-67
2022/07/05 02:41:29;;;;;;;14.95;9.38;;;20.70;99.90;;;;;;4177485;28;20373;-65
2022/07/05 02:43:30;;;;;;;11.23;9.00;;;20.60;99.90;;;;;;4177290;28;20041;-66
2022/07/05 02:45:31;;;;;;;12.50;8.85;;;20.60;99.90;;;;;;4177597;28;20055;-67
2022/07/05 02:47:34;;;;;;;12.80;9.27;;;20.60;99.90;;;;;;4179015;28;20536;-66
2022/07/05 02:49:35;;;;;;;13.20;9.02;;;20.60;99.90;;;;;;4194134;28;20032;-65
2022/07/05 02:51:36;;;;;;;11.98;8.02;;;20.60;99.90;;;;;;4194034;28;20411;-65
2022/07/05 02:53:37;;;;;;;12.07;7.93;;;20.70;99.90;;;;;;4193916;28;20472;-68
2022/07/05 02:55:38;;;;;;;16.33;7.60;;;20.70;99.90;;;;;;4191940;28;20048;-67
2022/07/05 02:57:39;;;;;;;12.77;7.72;;;20.80;99.90;;;;;;4193473;28;20434;-66
2022/07/05 02:59:40;;;;;;;11.30;7.20;;;20.90;99.90;;;;;;4187754;28;20037;-67
2022/07/05 03:01:41;;;;;;;8.98;6.93;;;21.00;99.90;;;;;;4189972;28;20150;-65
2022/07/05 03:03:43;;;;;;;11.38;7.47;;;21.10;99.90;;;;;;4193746;28;20890;-65
2022/07/05 03:05:44;;;;;;;12.05;9.07;;;21.20;99.90;;;;;;4193669;28;20051;-65
2022/07/05 03:07:45;;;;;;;12.35;7.70;;;21.20;99.90;;;;;;4193615;28;20063;-65
2022/07/05 03:09:46;;;;;;;12.75;9.23;;;21.30;99.90;;;;;;4193573;28;20049;-69
2022/07/05 03:11:47;;;;;;;19.42;10.57;;;21.30;99.90;;;;;;4185539;28;20045;-65
2022/07/05 03:13:49;;;;;;;17.17;10.23;;;21.20;99.90;;;;;;4177041;28;20432;-67
2022/07/05 03:15:50;;;;;;;19.95;13.35;;;21.20;99.90;;;;;;4177076;28;20090;-68
2022/07/05 03:17:51;;;;;;;17.85;11.60;;;21.10;99.90;;;;;;4177190;28;20036;-68
2022/07/05 03:19:52;;;;;;;13.70;9.65;;;21.10;99.90;;;;;;4177157;28;20021;-68
2022/07/05 03:21:53;;;;;;;17.75;10.38;;;20.90;99.90;;;;;;4178504;28;20033;-65
2022/07/05 03:23:54;;;;;;;16.95;8.52;;;20.80;99.90;;;;;;4177154;28;20048;-65
2022/07/05 03:25:56;;;;;;;13.88;8.63;;;20.90;99.90;;;;;;4176442;28;20481;-67
2022/07/05 03:27:57;;;;;;;16.88;9.75;;;21.10;99.90;;;;;;4176757;28;20534;-65
2022/07/05 03:29:58;;;;;;;18.90;9.05;;;21.30;99.90;;;;;;4177038;28;20033;-66
2022/07/05 03:31:59;;;;;;;17.42;9.27;;;21.50;99.90;;;;;;4177059;28;20033;-69
2022/07/05 03:34:00;;;;;;;17.77;9.73;;;21.70;99.90;;;;;;4175388;28;20409;-65
2022/07/05 03:36:02;;;;;;;14.13;10.07;;;21.90;99.90;;;;;;4176785;28;20550;-65
2022/07/05 03:38:03;;;;;;;17.75;12.43;;;22.20;99.90;;;;;;4176367;28;20021;-65
2022/07/05 03:40:05;;;;;;;22.63;13.70;;;22.60;99.90;;;;;;4176637;28;20578;-64
2022/07/05 03:42:06;;;;;;;23.98;12.57;;;22.80;99.90;;;;;;4176571;28;20423;-64
2022/07/05 03:44:07;;;;;;;18.33;10.70;;;22.80;99.90;;;;;;4176355;28;20078;-64
2022/07/05 03:46:08;;;;;;;18.33;10.68;;;23.00;99.90;;;;;;4176562;28;20033;-65
2022/07/05 03:48:09;;;;;;;16.98;10.15;;;23.10;99.90;;;;;;4176535;28;20032;-63
2022/07/05 03:50:11;;;;;;;11.85;9.02;;;23.00;99.90;;;;;;4176982;28;20052;-62
2022/07/05 03:52:12;;;;;;;19.30;9.43;;;23.10;99.90;;;;;;4176939;28;20056;-65
2022/07/05 03:54:13;;;;;;;15.57;10.15;;;23.10;99.90;;;;;;4175931;28;20041;-64
2022/07/05 03:56:19;;;;;;;18.20;10.25;;;23.10;99.90;;;;;;4176062;28;20175;-68
2022/07/05 03:58:20;;;;;;;17.60;9.73;;;23.10;99.90;;;;;;4186924;28;20086;-67
2022/07/05 04:00:21;;;;;;;23.20;11.23;;;23.00;99.90;;;;;;4192320;28;20040;-66
2022/07/05 04:02:22;;;;;;;22.95;10.45;;;22.90;99.90;;;;;;4192922;28;20562;-65
2022/07/05 04:04:24;;;;;;;21.52;9.82;;;22.50;99.90;;;;;;4192891;28;20036;-65
2022/07/05 04:06:25;;;;;;;19.17;9.88;;;22.20;99.90;;;;;;4192379;28;20484;-65
2022/07/05 04:08:26;;;;;;;18.10;9.68;;;22.20;99.90;;;;;;4179852;28;20048;-72
2022/07/05 04:10:27;;;;;;;24.60;9.93;;;22.10;99.90;;;;;;4175754;28;20098;-66
2022/07/05 04:12:28;;;;;;;19.38;9.88;;;21.90;99.90;;;;;;4177381;28;20040;-67
2022/07/05 04:14:29;;;;;;;17.33;10.70;;;22.30;99.90;;;;;;4175322;28;20045;-66
2022/07/05 04:16:31;;;;;;;17.98;9.95;;;22.90;99.90;;;;;;4184501;28;20075;-64
2022/07/05 04:18:32;;;;;;;17.00;9.68;;;23.40;99.90;;;;;;4191849;28;20488;-66
2022/07/05 04:20:33;;;;;;;19.40;10.23;;;23.80;99.90;;;;;;4192828;28;20066;-64
2022/07/05 04:22:34;;;;;;;16.60;9.55;;;24.20;99.90;;;;;;4192966;28;20101;-64
2022/07/05 04:25:16;;;;;;;17.67;10.05;;;24.80;99.90;;;;;;4192674;28;20411;-65
2022/07/05 04:26:57;;;;;;;17.67;8.85;;;25.10;99.90;;;;;;4175258;28;20058;-65
2022/07/05 04:28:58;;;;;;;20.75;10.00;;;25.80;99.90;;;;;;4175677;28;20376;-64
2022/07/05 04:30:59;;;;;;;12.77;8.18;;;26.00;99.90;;;;;;4175251;28;20036;-65
2022/07/05 04:33:01;;;;;;;16.48;9.13;;;26.10;99.90;;;;;;4176159;28;20451;-67
2022/07/05 04:35:02;;;;;;;16.25;8.90;;;26.10;99.90;;;;;;4175696;28;20041;-65
2022/07/05 04:37:03;;;;;;;17.40;8.43;;;26.00;99.90;;;;;;4184502;28;20052;-66
2022/07/05 04:39:04;;;;;;;13.05;8.30;;;25.80;99.90;;;;;;4175589;28;20053;-67
2022/07/05 04:41:06;;;;;;;13.90;8.02;;;25.90;99.90;;;;;;4173179;28;20103;-66
2022/07/05 04:43:08;;;;;;;13.05;8.65;;;26.40;99.90;;;;;;4175867;28;20439;-66
2022/07/05 04:45:09;;;;;;;12.15;7.80;;;26.50;99.90;;;;;;4172555;28;20545;-66
2022/07/05 04:47:10;;;;;;;12.98;7.95;;;26.60;99.90;;;;;;4175971;28;20068;-64
2022/07/05 04:49:12;;;;;;;10.88;8.65;;;26.80;99.90;;;;;;4175772;28;20041;-65
2022/07/05 04:51:13;;;;;;;12.63;9.02;;;27.30;99.90;;;;;;4173460;28;20848;-67
2022/07/05 04:53:14;;;;;;;11.38;8.07;;;28.00;99.90;;;;;;4170339;28;20091;-66
2022/07/05 04:55:15;;;;;;;16.63;9.85;;;28.70;99.70;;;;;;4180457;28;20037;-62
2022/07/05 04:57:16;;;;;;;54.15;31.10;;;29.40;98.70;;;;;;4192431;28;20480;-65
2022/07/05 04:59:17;;;;;;;19.25;11.85;;;29.90;97.90;;;;;;4192173;28;20033;-66
2022/07/05 05:01:19;;;;;;;19.35;8.50;;;30.50;97.00;;;;;;4191854;28;20506;-66
2022/07/05 05:03:20;;;;;;;10.98;7.90;;;30.70;96.40;;;;;;4191810;28;20377;-66
2022/07/05 05:05:22;;;;;;;24.27;10.00;;;30.90;95.80;;;;;;4192290;28;20591;-66
2022/07/05 05:07:23;;;;;;;17.90;8.98;;;30.80;95.40;;;;;;4192371;28;20033;-67
2022/07/05 05:09:25;;;;;;;17.20;8.27;;;30.60;95.20;;;;;;4192092;28;20044;-67
2022/07/05 05:11:26;;;;;;;21.83;9.25;;;30.40;95.10;;;;;;4192198;28;20102;-67
2022/07/05 05:13:27;;;;;;;20.73;9.85;;;30.10;95.10;;;;;;4191632;28;20040;-65
2022/07/05 05:15:28;;;;;;;27.75;9.80;;;30.30;95.00;;;;;;4191778;28;20036;-66
2022/07/05 05:17:40;;;;;;;32.15;10.32;;;30.40;94.70;;;;;;4192266;28;20029;-66
2022/07/05 05:19:41;;;;;;;26.27;9.05;;;30.50;94.10;;;;;;4195163;28;20078;-66
2022/07/05 05:21:43;;;;;;;15.60;7.07;;;30.20;94.30;;;;;;4195186;28;20078;-67
2022/07/05 05:23:44;;;;;;;17.65;7.18;;;30.10;94.20;;;;;;4194591;28;20060;-66
2022/07/05 05:25:45;;;;;;;13.45;6.53;;;29.60;94.20;;;;;;4194348;28;20041;-66
2022/07/05 05:27:50;;;;;;;13.98;6.43;;;29.40;94.20;;;;;;4194730;28;20056;-66
2022/07/05 05:29:51;;;;;;;17.23;6.03;;;29.40;94.00;;;;;;4195112;28;20041;-66
2022/07/05 05:31:52;;;;;;;10.05;6.97;;;29.40;94.00;;;;;;4194635;28;20093;-66
2022/07/05 05:33:53;;;;;;;8.60;6.50;;;29.20;94.00;;;;;;4194612;28;20036;-67
2022/07/05 05:35:55;;;;;;;10.23;6.70;;;29.30;93.90;;;;;;4194338;28;20036;-66
2022/07/05 05:37:56;;;;;;;9.43;6.55;;;29.10;93.90;;;;;;4194707;28;20100;-66
2022/07/05 05:39:57;;;;;;;17.13;7.18;;;28.80;94.20;;;;;;4194282;28;20098;-66
2022/07/05 05:41:59;;;;;;;11.65;7.30;;;28.30;94.70;;;;;;4194799;28;20427;-67
2022/07/05 05:44:00;;;;;;;9.57;7.85;;;27.60;95.50;;;;;;4194498;28;20121;-66
2022/07/05 05:46:02;;;;;;;10.98;7.40;;;27.20;96.30;;;;;;4194639;28;20086;-67
2022/07/05 05:48:04;;;;;;;10.75;7.88;;;27.00;96.70;;;;;;4194536;28;20086;-67
2022/07/05 05:50:05;;;;;;;16.80;7.85;;;26.80;97.20;;;;;;4194567;28;20042;-66
2022/07/05 05:52:06;;;;;;;11.23;7.57;;;27.00;97.30;;;;;;4194500;28;20056;-67
2022/07/05 05:54:08;;;;;;;12.60;7.90;;;27.40;97.00;;;;;;4194520;28;20395;-67
2022/07/05 05:56:09;;;;;;;11.02;7.63;;;27.70;96.80;;;;;;4194046;28;20190;-66
2022/07/05 05:58:20;;;;;;;19.88;7.40;;;27.80;96.60;;;;;;4194574;28;20032;-65
2022/07/05 06:00:22;;;;;;;15.10;7.88;;;28.30;96.50;;;;;;4194362;28;20098;-66
2022/07/05 06:02:23;;;;;;;12.40;7.25;;;28.90;95.90;;;;;;4194176;28;20021;-66
2022/07/05 06:04:24;;;;;;;15.07;7.65;;;29.20;95.60;;;;;;4193620;28;20052;-66
2022/07/05 06:06:25;;;;;;;11.70;7.47;;;29.50;95.40;;;;;;4194203;28;20446;-65
2022/07/05 06:08:27;;;;;;;13.13;7.30;;;29.50;95.30;;;;;;4194317;28;20028;-68
2022/07/05 06:10:31;;;;;;;9.98;7.85;;;29.20;95.50;;;;;;4194047;28;20066;-66
2022/07/05 06:12:32;;;;;;;13.68;7.97;;;28.90;95.70;;;;;;4194571;28;20045;-66
2022/07/05 06:14:33;;;;;;;14.02;8.00;;;28.90;96.00;;;;;;4194192;28;20028;-66
2022/07/05 06:16:34;;;;;;;11.38;8.48;;;29.10;95.90;;;;;;4193676;28;20052;-67
2022/07/05 06:18:35;;;;;;;14.07;8.73;;;28.60;96.30;;;;;;4193814;28;20089;-66
2022/07/05 06:20:38;;;;;;;15.05;9.07;;;28.40;96.70;;;;;;4194234;28;20078;-67
2022/07/05 06:22:39;;;;;;;14.82;8.20;;;28.20;97.10;;;;;;4194545;28;20423;-68
2022/07/05 06:24:40;;;;;;;16.52;9.30;;;27.80;97.80;;;;;;4194064;28;20044;-67
2022/07/05 06:26:41;;;;;;;15.68;9.27;;;27.30;98.20;;;;;;4193636;28;20484;-67
2022/07/05 06:28:42;;;;;;;22.95;9.57;;;27.20;98.70;;;;;;4193699;28;20496;-67
2022/07/05 06:30:44;;;;;;;17.48;8.50;;;27.00;99.20;;;;;;4193932;28;20032;-66
2022/07/05 06:32:46;;;;;;;14.77;8.65;;;26.80;99.50;;;;;;4193448;28;20373;-67
2022/07/05 06:34:48;;;;;;;15.70;9.73;;;26.60;99.90;;;;;;4193920;28;20507;-67
2022/07/05 06:36:49;;;;;;;19.05;9.85;;;26.50;99.90;;;;;;4193308;28;20044;-66
2022/07/05 06:38:50;;;;;;;12.88;9.35;;;26.70;99.90;;;;;;4192109;28;20037;-71
2022/07/05 06:40:51;;;;;;;13.77;8.88;;;26.80;99.90;;;;;;4193633;28;20097;-66
2022/07/05 06:42:54;;;;;;;10.63;8.30;;;26.70;99.90;;;;;;4193734;28;20032;-66
2022/07/05 06:44:55;;;;;;;14.07;9.02;;;26.70;99.90;;;;;;4193605;28;20545;-69
2022/07/05 06:46:56;;;;;;;16.08;9.40;;;26.70;99.90;;;;;;4193569;28;20124;-66
2022/07/05 06:48:57;;;;;;;11.00;8.73;;;26.70;99.90;;;;;;4193177;28;20089;-66
2022/07/05 06:50:59;;;;;;;11.38;8.25;;;26.90;99.90;;;;;;4193665;28;20082;-67
2022/07/05 06:53:00;;;;;;;14.13;8.38;;;26.80;99.90;;;;;;4193706;28;20557;-66
2022/07/05 06:55:02;;;;;;;14.40;8.63;;;27.00;99.90;;;;;;4193067;28;20442;-67
2022/07/05 06:57:05;;;;;;;15.07;8.25;;;27.10;99.90;;;;;;4193193;28;20036;-67
2022/07/05 06:59:06;;;;;;;18.15;9.02;;;27.30;99.90;;;;;;4193536;28;20530;-66
2022/07/05 07:01:07;;;;;;;11.38;8.45;;;27.70;99.90;;;;;;4193498;28;20092;-67
2022/07/05 07:03:08;;;;;;;9.00;8.07;;;27.90;99.90;;;;;;4193483;28;20418;-67
2022/07/05 07:05:09;;;;;;;13.10;8.25;;;28.00;99.90;;;;;;4193667;28;20025;-69
2022/07/05 07:09:31;;;;;;;10.52;7.55;;;28.30;99.90;;;;;;4194198;28;20028;-67
2022/07/05 07:11:32;;;;;;;11.85;7.57;;;28.50;99.80;;;;;;4192850;28;20033;-65
2022/07/05 07:13:33;;;;;;;14.88;8.00;;;28.90;99.40;;;;;;4193351;28;20165;-67
2022/07/05 07:15:35;;;;;;;11.57;7.55;;;29.30;99.00;;;;;;4193296;28;20490;-66
2022/07/05 07:17:36;;;;;;;11.15;6.57;;;29.30;98.60;;;;;;4193435;28;20089;-66
2022/07/05 07:19:37;;;;;;;10.75;7.13;;;29.40;98.50;;;;;;4193081;28;20083;-67
2022/07/05 07:21:40;;;;;;;12.40;7.43;;;29.20;98.60;;;;;;4192788;28;20550;-67
2022/07/05 07:23:41;;;;;;;10.18;7.45;;;29.20;98.60;;;;;;4193280;28;20040;-66
2022/07/05 07:25:42;;;;;;;12.10;7.05;;;29.20;98.50;;;;;;4192569;28;20048;-67
2022/07/05 07:27:49;;;;;;;10.73;7.00;;;29.30;98.50;;;;;;4192720;28;20021;-66
2022/07/05 07:29:50;;;;;;;13.90;6.65;;;29.30;98.40;;;;;;4193143;28;20032;-67
2022/07/05 07:31:51;;;;;;;10.82;6.65;;;29.30;98.40;;;;;;4192946;28;20094;-67
2022/07/05 07:33:52;;;;;;;15.57;7.10;;;29.60;98.20;;;;;;4192636;28;20471;-66
2022/07/05 07:35:53;;;;;;;8.07;6.85;;;29.70;97.80;;;;;;4192841;28;20078;-67
2022/07/05 07:37:54;;;;;;;10.52;6.97;;;29.40;97.90;;;;;;4192718;28;20086;-66
2022/07/05 07:39:56;;;;;;;12.45;6.82;;;29.50;97.90;;;;;;4192629;28;20024;-66
2022/07/05 07:41:57;;;;;;;13.02;6.68;;;29.60;97.80;;;;;;4190845;28;20048;-66
2022/07/05 07:43:59;;;;;;;10.65;7.03;;;29.80;97.60;;;;;;4192557;28;20466;-67
2022/07/05 07:46:00;;;;;;;9.38;5.72;;;29.60;97.70;;;;;;4192581;28;20040;-67
2022/07/05 07:48:01;;;;;;;7.65;6.82;;;29.60;97.60;;;;;;4192932;28;20025;-67
2022/07/05 07:50:04;;;;;;;12.23;7.60;;;29.60;97.40;;;;;;4192728;28;20040;-66
2022/07/05 07:52:05;;;;;;;11.50;7.10;;;29.60;97.50;;;;;;4192781;28;20041;-69
2022/07/05 07:54:06;;;;;;;10.98;5.95;;;29.60;97.20;;;;;;4192954;28;20042;-66
2022/07/05 07:56:08;;;;;;;8.13;6.05;;;29.60;97.10;;;;;;4191989;28;20056;-66
2022/07/05 07:58:09;;;;;;;10.00;7.13;;;29.50;97.00;;;;;;4192586;28;20102;-66
2022/07/05 08:00:10;;;;;;;11.52;7.43;;;29.40;97.00;;;;;;4192659;28;20078;-67
2022/07/05 08:02:12;;;;;;;8.95;7.03;;;29.40;97.10;;;;;;4192374;28;20185;-69
2022/07/05 08:04:14;;;;;;;7.47;6.43;;;29.40;97.30;;;;;;4192555;28;20044;-66
2022/07/05 08:06:15;;;;;;;12.73;6.55;;;29.50;97.20;;;;;;4192421;28;20052;-66
2022/07/05 08:08:16;;;;;;;9.82;5.93;;;29.60;96.90;;;;;;4192611;28;20067;-66
2022/07/05 08:10:17;;;;;;;8.13;6.25;;;29.70;96.90;;;;;;4192287;28;20021;-67
2022/07/05 08:12:19;;;;;;;6.85;6.20;;;30.00;96.40;;;;;;4192388;28;20032;-66
2022/07/05 08:14:20;;;;;;;8.85;6.55;;;30.20;96.40;;;;;;4192631;28;20480;-67
2022/07/05 08:16:21;;;;;;;12.05;6.88;;;30.30;96.50;;;;;;4192774;28;20033;-68
2022/07/05 08:23:02;;;;;;;10.02;6.88;;;30.20;96.70;;;;;;4192862;28;20033;-66
2022/07/05 08:25:03;;;;;;;14.07;8.43;;;30.40;96.60;;;;;;4192273;28;20098;-66
2022/07/05 08:27:04;;;;;;;10.95;7.28;;;30.30;96.70;;;;;;4192555;28;20101;-66
2022/07/05 08:29:08;;;;;;;10.25;6.50;;;30.60;96.40;;;;;;4192527;28;20033;-66
2022/07/05 08:31:09;;;;;;;8.25;6.28;;;30.80;95.60;;;;;;4192584;28;20097;-66
2022/07/05 08:33:10;;;;;;;7.03;5.43;;;31.10;95.60;;;;;;4192144;28;20152;-68
2022/07/05 08:35:11;;;;;;;7.97;6.30;;;31.30;94.80;;;;;;4192585;28;20083;-67
2022/07/05 08:37:12;;;;;;;8.20;5.57;;;31.30;94.40;;;;;;4192470;28;20078;-69
2022/07/05 08:39:15;;;;;;;11.02;5.30;;;31.30;94.30;;;;;;4192435;28;20564;-67
2022/07/05 08:41:19;;;;;;;6.53;5.32;;;31.50;93.90;;;;;;4192004;28;20028;-66
2022/07/05 08:43:22;;;;;;;6.57;5.72;;;31.60;93.70;;;;;;4192132;28;20090;-66
2022/07/05 08:45:27;;;;;;;8.70;5.93;;;31.40;93.80;;;;;;4191821;28;20048;-66
2022/07/05 08:47:28;;;;;;;8.95;5.72;;;31.20;93.80;;;;;;4191943;28;20442;-66
2022/07/05 08:49:33;;;;;;;10.07;5.38;;;31.10;94.10;;;;;;4191764;28;20032;-66
2022/07/05 08:51:38;;;;;;;13.45;6.38;;;31.10;94.40;;;;;;4192179;28;20037;-67
2022/07/05 08:53:41;;;;;;;14.43;6.50;;;30.90;94.60;;;;;;4194698;28;20041;-66
2022/07/05 08:55:42;;;;;;;7.75;5.53;;;30.80;94.50;;;;;;4195009;28;20049;-66
2022/07/05 08:57:44;;;;;;;9.95;6.50;;;30.90;94.40;;;;;;4195065;28;20098;-65
2022/07/05 08:59:45;;;;;;;9.50;6.22;;;31.00;94.20;;;;;;4195418;28;20814;-66
2022/07/05 09:01:48;;;;;;;7.57;5.55;;;31.10;93.90;;;;;;4195125;28;20146;-66
2022/07/05 09:03:51;;;;;;;13.75;5.50;;;31.10;93.80;;;;;;4194836;28;20469;-67
2022/07/05 09:05:56;;;;;;;15.88;6.28;;;31.20;93.60;;;;;;4195727;28;20412;-66
2022/07/05 09:08:01;;;;;;;13.60;5.55;;;31.20;93.10;;;;;;4195413;28;20128;-67
2022/07/05 09:10:03;;;;;;;10.77;5.55;;;31.40;92.80;;;;;;4195286;28;20526;-67
2022/07/05 09:12:05;;;;;;;8.35;5.22;;;31.60;92.50;;;;;;4195007;28;20081;-67
2022/07/05 09:14:18;;;;;;;6.85;5.05;;;32.00;92.40;;;;;;4195298;28;20338;-67
2022/07/05 09:16:19;;;;;;;7.10;5.35;;;32.00;92.00;;;;;;4195191;28;20029;-67
2022/07/05 09:18:42;;;;;;;7.60;5.53;;;32.00;92.10;;;;;;4194766;28;20086;-67
2022/07/05 09:20:46;;;;;;;8.38;5.40;;;32.10;91.50;;;;;;4194768;28;20098;-68
2022/07/05 09:22:55;;;;;;;9.07;5.40;;;32.20;91.60;;;;;;4195746;28;20028;-66
2022/07/05 09:24:56;;;;;;;10.77;5.22;;;32.20;90.90;;;;;;4194957;28;20602;-65
2022/07/05 09:27:03;;;;;;;12.93;4.93;;;32.20;91.20;;;;;;4194946;28;20090;-67
2022/07/05 09:29:07;;;;;;;11.68;5.60;;;32.20;91.00;;;;;;4194813;28;20078;-67
2022/07/05 09:31:29;;;;;;;9.88;5.35;;;32.30;91.00;;;;;;4194710;28;20449;-68
2022/07/05 09:33:31;;;;;;;7.95;5.18;;;32.20;89.50;;;;;;4195020;28;20713;-67
2022/07/05 09:35:34;;;;;;;9.73;4.93;;;32.20;90.10;;;;;;4194785;28;20032;-66
2022/07/05 09:37:44;;;;;;;11.57;4.65;;;32.20;89.60;;;;;;4194817;28;20097;-66
2022/07/05 09:39:46;;;;;;;7.57;4.50;;;32.10;88.70;;;;;;4194196;28;20106;-66
2022/07/05 09:41:48;;;;;;;6.68;4.85;;;32.10;88.20;;;;;;4194342;28;20386;-66
2022/07/05 09:43:49;;;;;;;9.98;5.07;;;32.10;88.70;;;;;;4194477;28;20021;-67
2022/07/05 09:45:52;;;;;;;10.85;5.30;;;32.20;89.30;;;;;;4194565;28;20045;-65
2022/07/05 09:47:56;;;;;;;7.80;4.18;;;32.30;87.20;;;;;;4194249;28;20145;-67
2022/07/05 09:50:06;;;;;;;7.70;4.57;;;32.20;85.20;;;;;;4194464;28;20029;-66
2022/07/05 09:52:08;;;;;;;10.00;4.47;;;32.20;85.80;;;;;;4194767;28;20125;-67
2022/07/05 09:54:09;;;;;;;5.95;3.92;;;32.20;85.70;;;;;;4194395;28;20422;-68
2022/07/05 09:56:10;;;;;;;11.98;4.63;;;32.20;84.90;;;;;;4194552;28;20052;-67
2022/07/05 09:58:13;;;;;;;7.18;4.60;;;32.50;84.40;;;;;;4194672;28;20464;-66
2022/07/05 10:00:19;;;;;;;6.30;3.78;;;32.50;83.70;;;;;;4194605;28;20078;-66
2022/07/05 10:02:51;;;;;;;10.38;4.20;;;32.50;83.20;;;;;;4194509;28;20025;-64
2022/07/05 10:05:11;;;;;;;7.50;4.40;;;32.60;82.90;;;;;;4194121;28;20173;-67
2022/07/05 10:07:31;;;;;;;6.40;4.18;;;32.70;81.00;;;;;;4194296;28;20076;-67
2022/07/05 10:09:33;;;;;;;9.50;3.47;;;32.70;79.60;;;;;;4194329;28;20449;-67
2022/07/05 10:11:37;;;;;;;4.75;3.45;;;32.80;80.50;;;;;;4194159;28;20136;-66
2022/07/05 10:13:40;;;;;;;9.07;3.80;;;32.80;78.30;;;;;;4194126;28;20091;-66
2022/07/05 10:15:43;;;;;;;3.88;3.47;;;32.90;79.00;;;;;;4194345;28;20043;-65
2022/07/05 10:17:49;;;;;;;6.30;3.28;;;32.90;77.90;;;;;;4194255;28;20496;-67
2022/07/05 10:19:52;;;;;;;5.63;3.58;;;32.80;77.10;;;;;;4194255;28;20058;-67
2022/07/05 10:21:53;;;;;;;6.75;3.40;;;32.80;77.50;;;;;;4194255;28;20034;-67
2022/07/05 10:23:56;;;;;;;4.90;2.60;;;32.90;76.70;;;;;;4194730;28;20476;-67
2022/07/05 10:25:58;;;;;;;5.32;2.83;;;33.00;73.70;;;;;;4193926;28;20484;-67
2022/07/05 10:27:59;;;;;;;6.45;3.95;;;33.00;74.60;;;;;;4194309;28;20089;-67
2022/07/05 10:30:01;;;;;;;5.05;3.92;;;33.00;74.90;;;;;;4193640;28;20037;-67
2022/07/05 10:32:06;;;;;;;6.25;4.18;;;33.00;76.70;;;;;;4194122;28;20365;-67
2022/07/05 10:34:08;;;;;;;8.95;4.68;;;33.00;76.40;;;;;;4193750;28;20045;-67
2022/07/05 10:36:13;;;;;;;4.82;3.58;;;32.90;77.50;;;;;;4193859;28;20476;-69
2022/07/05 10:38:15;;;;;;;9.88;3.20;;;32.90;76.20;;;;;;4193778;28;20024;-69